sensor_id;sensor_type;location;lat;lon;timestamp;temperature;humidity
15656;DHT22;7928;43.614;1.456;2023-04-01T00:00:37;12.60;99.90
15656;DHT22;7928;43.614;1.456;2023-04-01T00:05:31;12.20;99.90
15656;DHT22;7928;43.614;1.456;2023-04-01T00:07:58;12.10;99.90
15656;DHT22;7928;43.614;1.456;2023-04-01T00:10:26;12.10;99.90
15656;DHT22;7928;43.614;1.456;2023-04-01T00:12:53;12.00;99.90
15656;DHT22;7928;43.614;1.456;2023-04-01T00:15:21;12.00;99.90
15656;DHT22;7928;43.614;1.456;2023-04-01T00:17:48;12.00;99.90
15656;DHT22;7928;43.614;1.456;2023-04-01T00:20:15;12.00;99.90
15656;DHT22;7928;43.614;1.456;2023-04-01T00:22:42;12.00;99.90
15656;DHT22;7928;43.614;1.456;2023-04-01T00:25:09;12.00;99.90
15656;DHT22;7928;43.614;1.456;2023-04-01T00:27:36;11.90;99.90
15656;DHT22;7928;43.614;1.456;2023-04-01T00:30:04;12.00;99.90
15656;DHT22;7928;43.614;1.456;2023-04-01T00:32:34;12.10;99.90
15656;DHT22;7928;43.614;1.456;2023-04-01T00:35:01;12.10;99.90
15656;DHT22;7928;43.614;1.456;2023-04-01T00:37:28;11.90;99.90
15656;DHT22;7928;43.614;1.456;2023-04-01T00:39:55;12.40;99.90
15656;DHT22;7928;43.614;1.456;2023-04-01T00:42:23;12.00;99.90
15656;DHT22;7928;43.614;1.456;2023-04-01T00:44:53;11.70;99.90
15656;DHT22;7928;43.614;1.456;2023-04-01T00:47:21;11.90;99.90
15656;DHT22;7928;43.614;1.456;2023-04-01T00:49:52;11.50;99.90
15656;DHT22;7928;43.614;1.456;2023-04-01T00:52:23;12.10;99.90
15656;DHT22;7928;43.614;1.456;2023-04-01T00:54:54;12.60;99.90
15656;DHT22;7928;43.614;1.456;2023-04-01T00:57:27;11.80;99.90
15656;DHT22;7928;43.614;1.456;2023-04-01T00:59:55;11.70;99.90
15656;DHT22;7928;43.614;1.456;2023-04-01T01:02:22;12.10;99.90
15656;DHT22;7928;43.614;1.456;2023-04-01T01:04:51;11.70;99.90
15656;DHT22;7928;43.614;1.456;2023-04-01T01:07:24;11.90;99.90
15656;DHT22;7928;43.614;1.456;2023-04-01T01:10:02;11.70;99.90
15656;DHT22;7928;43.614;1.456;2023-04-01T01:12:36;11.60;99.90
15656;DHT22;7928;43.614;1.456;2023-04-01T01:15:12;11.70;99.90
15656;DHT22;7928;43.614;1.456;2023-04-01T01:17:51;12.10;99.90
15656;DHT22;7928;43.614;1.456;2023-04-01T01:20:47;12.00;99.90
15656;DHT22;7928;43.614;1.456;2023-04-01T01:26:49;11.30;99.90
15656;DHT22;7928;43.614;1.456;2023-04-01T01:29:52;12.00;99.90
15656;DHT22;7928;43.614;1.456;2023-04-01T01:32:35;11.50;99.90
15656;DHT22;7928;43.614;1.456;2023-04-01T01:35:14;11.60;99.90
15656;DHT22;7928;43.614;1.456;2023-04-01T01:37:43;12.10;99.90
15656;DHT22;7928;43.614;1.456;2023-04-01T01:40:13;11.70;99.90
15656;DHT22;7928;43.614;1.456;2023-04-01T01:42:45;11.10;99.90
15656;DHT22;7928;43.614;1.456;2023-04-01T01:45:15;11.60;99.90
15656;DHT22;7928;43.614;1.456;2023-04-01T01:47:44;11.40;99.90
15656;DHT22;7928;43.614;1.456;2023-04-01T01:50:13;11.10;99.90
15656;DHT22;7928;43.614;1.456;2023-04-01T01:52:41;11.80;99.90
15656;DHT22;7928;43.614;1.456;2023-04-01T01:55:25;11.20;99.90
15656;DHT22;7928;43.614;1.456;2023-04-01T01:57:53;10.70;99.90
15656;DHT22;7928;43.614;1.456;2023-04-01T02:00:21;11.20;99.90
15656;DHT22;7928;43.614;1.456;2023-04-01T02:02:49;11.90;99.90
15656;DHT22;7928;43.614;1.456;2023-04-01T02:05:21;11.10;99.90
15656;DHT22;7928;43.614;1.456;2023-04-01T02:07:53;11.90;99.90
15656;DHT22;7928;43.614;1.456;2023-04-01T02:10:25;11.80;99.90
15656;DHT22;7928;43.614;1.456;2023-04-01T02:12:57;11.20;99.90
15656;DHT22;7928;43.614;1.456;2023-04-01T02:15:24;11.80;99.90
15656;DHT22;7928;43.614;1.456;2023-04-01T02:17:52;11.40;99.90
15656;DHT22;7928;43.614;1.456;2023-04-01T02:20:24;11.60;99.90
15656;DHT22;7928;43.614;1.456;2023-04-01T02:22:53;11.40;99.90
15656;DHT22;7928;43.614;1.456;2023-04-01T02:25:22;12.00;99.90
15656;DHT22;7928;43.614;1.456;2023-04-01T02:30:17;12.00;99.90
15656;DHT22;7928;43.614;1.456;2023-04-01T02:32:45;11.60;99.90
15656;DHT22;7928;43.614;1.456;2023-04-01T02:35:15;11.20;99.90
15656;DHT22;7928;43.614;1.456;2023-04-01T02:37:45;11.50;99.90
15656;DHT22;7928;43.614;1.456;2023-04-01T02:40:15;11.80;99.90
15656;DHT22;7928;43.614;1.456;2023-04-01T02:42:42;11.90;99.90
15656;DHT22;7928;43.614;1.456;2023-04-01T02:45:11;11.30;99.90
15656;DHT22;7928;43.614;1.456;2023-04-01T02:47:38;11.80;99.90
15656;DHT22;7928;43.614;1.456;2023-04-01T02:50:07;11.70;99.90
15656;DHT22;7928;43.614;1.456;2023-04-01T02:52:34;11.40;99.90
15656;DHT22;7928;43.614;1.456;2023-04-01T02:55:02;11.10;99.90
15656;DHT22;7928;43.614;1.456;2023-04-01T02:57:29;11.40;99.90
15656;DHT22;7928;43.614;1.456;2023-04-01T02:59:56;11.60;99.90
15656;DHT22;7928;43.614;1.456;2023-04-01T03:02:23;12.00;99.90
15656;DHT22;7928;43.614;1.456;2023-04-01T03:04:50;11.10;99.90
15656;DHT22;7928;43.614;1.456;2023-04-01T03:07:17;11.10;99.90
15656;DHT22;7928;43.614;1.456;2023-04-01T03:09:44;11.90;99.90
15656;DHT22;7928;43.614;1.456;2023-04-01T03:12:13;11.10;99.90
15656;DHT22;7928;43.614;1.456;2023-04-01T03:14:40;10.30;99.90
15656;DHT22;7928;43.614;1.456;2023-04-01T03:17:07;11.80;99.90
15656;DHT22;7928;43.614;1.456;2023-04-01T03:19:34;11.80;99.90
15656;DHT22;7928;43.614;1.456;2023-04-01T03:22:01;10.00;99.90
15656;DHT22;7928;43.614;1.456;2023-04-01T03:24:28;11.80;99.90
15656;DHT22;7928;43.614;1.456;2023-04-01T03:26:55;10.90;99.90
15656;DHT22;7928;43.614;1.456;2023-04-01T03:29:23;11.30;99.90
15656;DHT22;7928;43.614;1.456;2023-04-01T03:34:17;10.70;99.90
15656;DHT22;7928;43.614;1.456;2023-04-01T03:36:44;11.60;99.90
15656;DHT22;7928;43.614;1.456;2023-04-01T03:39:11;10.50;99.90
15656;DHT22;7928;43.614;1.456;2023-04-01T03:41:38;11.90;99.90
15656;DHT22;7928;43.614;1.456;2023-04-01T03:44:05;10.50;99.90
15656;DHT22;7928;43.614;1.456;2023-04-01T03:46:34;10.80;99.90
15656;DHT22;7928;43.614;1.456;2023-04-01T03:49:01;10.80;99.90
15656;DHT22;7928;43.614;1.456;2023-04-01T03:51:28;11.80;99.90
15656;DHT22;7928;43.614;1.456;2023-04-01T03:53:55;10.80;99.90
15656;DHT22;7928;43.614;1.456;2023-04-01T03:56:22;11.50;99.90
15656;DHT22;7928;43.614;1.456;2023-04-01T04:01:18;11.20;99.90
15656;DHT22;7928;43.614;1.456;2023-04-01T04:03:47;11.90;99.90
15656;DHT22;7928;43.614;1.456;2023-04-01T04:06:16;11.40;99.90
15656;DHT22;7928;43.614;1.456;2023-04-01T04:08:44;11.70;99.90
15656;DHT22;7928;43.614;1.456;2023-04-01T04:11:11;10.60;99.90
15656;DHT22;7928;43.614;1.456;2023-04-01T04:13:38;11.40;99.90
15656;DHT22;7928;43.614;1.456;2023-04-01T04:16:05;11.00;99.90
15656;DHT22;7928;43.614;1.456;2023-04-01T04:18:32;10.90;99.90
15656;DHT22;7928;43.614;1.456;2023-04-01T04:21:01;11.10;99.90
15656;DHT22;7928;43.614;1.456;2023-04-01T04:23:28;10.20;99.90
15656;DHT22;7928;43.614;1.456;2023-04-01T04:25:59;10.40;99.90
15656;DHT22;7928;43.614;1.456;2023-04-01T04:28:27;10.50;99.90
15656;DHT22;7928;43.614;1.456;2023-04-01T04:30:54;11.20;99.90
15656;DHT22;7928;43.614;1.456;2023-04-01T04:33:21;11.10;99.90
15656;DHT22;7928;43.614;1.456;2023-04-01T04:35:48;11.80;99.90
15656;DHT22;7928;43.614;1.456;2023-04-01T04:38:17;11.10;99.90
15656;DHT22;7928;43.614;1.456;2023-04-01T04:40:44;12.00;99.90
15656;DHT22;7928;43.614;1.456;2023-04-01T04:43:12;11.20;99.90
15656;DHT22;7928;43.614;1.456;2023-04-01T04:45:39;11.10;99.90
15656;DHT22;7928;43.614;1.456;2023-04-01T04:48:07;11.40;99.90
15656;DHT22;7928;43.614;1.456;2023-04-01T04:50:34;11.90;99.90
15656;DHT22;7928;43.614;1.456;2023-04-01T04:53:01;11.30;99.90
15656;DHT22;7928;43.614;1.456;2023-04-01T04:55:30;10.90;99.90
15656;DHT22;7928;43.614;1.456;2023-04-01T04:57:57;11.20;99.90
15656;DHT22;7928;43.614;1.456;2023-04-01T05:00:24;11.20;99.90
15656;DHT22;7928;43.614;1.456;2023-04-01T05:02:51;11.00;99.90
15656;DHT22;7928;43.614;1.456;2023-04-01T05:05:18;11.70;99.90
15656;DHT22;7928;43.614;1.456;2023-04-01T05:07:45;11.20;99.90
15656;DHT22;7928;43.614;1.456;2023-04-01T05:10:12;11.00;99.90
15656;DHT22;7928;43.614;1.456;2023-04-01T05:12:40;10.90;99.90
15656;DHT22;7928;43.614;1.456;2023-04-01T05:15:08;10.70;99.90
15656;DHT22;7928;43.614;1.456;2023-04-01T05:17:35;11.40;99.90
15656;DHT22;7928;43.614;1.456;2023-04-01T05:20:02;11.00;99.90
15656;DHT22;7928;43.614;1.456;2023-04-01T05:22:29;10.50;99.90
15656;DHT22;7928;43.614;1.456;2023-04-01T05:24:56;10.80;99.90
15656;DHT22;7928;43.614;1.456;2023-04-01T05:27:23;11.60;99.90
15656;DHT22;7928;43.614;1.456;2023-04-01T05:29:51;11.10;99.90
15656;DHT22;7928;43.614;1.456;2023-04-01T05:32:18;11.30;99.90
15656;DHT22;7928;43.614;1.456;2023-04-01T05:34:45;11.10;99.90
15656;DHT22;7928;43.614;1.456;2023-04-01T05:37:12;11.40;99.90
15656;DHT22;7928;43.614;1.456;2023-04-01T05:39:39;11.00;99.90
15656;DHT22;7928;43.614;1.456;2023-04-01T05:44:34;10.50;99.90
15656;DHT22;7928;43.614;1.456;2023-04-01T05:47:03;10.90;99.90
15656;DHT22;7928;43.614;1.456;2023-04-01T05:49:30;11.10;99.90
15656;DHT22;7928;43.614;1.456;2023-04-01T05:51:57;10.80;99.90
15656;DHT22;7928;43.614;1.456;2023-04-01T05:54:24;11.60;99.90
15656;DHT22;7928;43.614;1.456;2023-04-01T05:56:51;10.90;99.90
15656;DHT22;7928;43.614;1.456;2023-04-01T05:59:18;11.30;99.90
15656;DHT22;7928;43.614;1.456;2023-04-01T06:01:45;10.90;99.90
15656;DHT22;7928;43.614;1.456;2023-04-01T06:04:16;11.80;99.90
15656;DHT22;7928;43.614;1.456;2023-04-01T06:06:43;11.10;99.90
15656;DHT22;7928;43.614;1.456;2023-04-01T06:09:14;11.70;99.90
15656;DHT22;7928;43.614;1.456;2023-04-01T06:11:51;10.80;99.90
15656;DHT22;7928;43.614;1.456;2023-04-01T06:14:30;10.70;99.90
15656;DHT22;7928;43.614;1.456;2023-04-01T06:17:11;11.20;99.90
15656;DHT22;7928;43.614;1.456;2023-04-01T06:19:48;11.50;99.90
15656;DHT22;7928;43.614;1.456;2023-04-01T06:22:51;12.10;99.90
15656;DHT22;7928;43.614;1.456;2023-04-01T06:25:33;11.20;99.90
15656;DHT22;7928;43.614;1.456;2023-04-01T06:31:10;10.70;99.90
15656;DHT22;7928;43.614;1.456;2023-04-01T06:33:48;12.10;99.90
15656;DHT22;7928;43.614;1.456;2023-04-01T06:36:37;11.70;99.90
15656;DHT22;7928;43.614;1.456;2023-04-01T06:39:29;12.30;99.90
15656;DHT22;7928;43.614;1.456;2023-04-01T06:42:12;12.30;99.90
15656;DHT22;7928;43.614;1.456;2023-04-01T06:44:47;12.10;99.90
15656;DHT22;7928;43.614;1.456;2023-04-01T06:47:28;11.90;99.90
15656;DHT22;7928;43.614;1.456;2023-04-01T06:50:07;11.70;99.90
15656;DHT22;7928;43.614;1.456;2023-04-01T06:52:47;11.70;99.90
15656;DHT22;7928;43.614;1.456;2023-04-01T06:55:27;11.70;99.90
15656;DHT22;7928;43.614;1.456;2023-04-01T06:57:57;11.70;99.90
15656;DHT22;7928;43.614;1.456;2023-04-01T07:00:29;12.50;99.90
15656;DHT22;7928;43.614;1.456;2023-04-01T07:03:05;12.20;99.90
15656;DHT22;7928;43.614;1.456;2023-04-01T07:05:33;12.50;99.90
15656;DHT22;7928;43.614;1.456;2023-04-01T07:08:04;12.10;99.90
15656;DHT22;7928;43.614;1.456;2023-04-01T07:10:39;12.40;99.90
15656;DHT22;7928;43.614;1.456;2023-04-01T07:13:14;12.30;99.90
15656;DHT22;7928;43.614;1.456;2023-04-01T07:15:49;11.90;99.90
15656;DHT22;7928;43.614;1.456;2023-04-01T07:18:21;12.00;99.90
15656;DHT22;7928;43.614;1.456;2023-04-01T07:20:49;12.40;99.90
15656;DHT22;7928;43.614;1.456;2023-04-01T07:23:24;12.60;99.90
15656;DHT22;7928;43.614;1.456;2023-04-01T07:25:53;12.50;99.90
15656;DHT22;7928;43.614;1.456;2023-04-01T07:28:22;12.40;99.90
15656;DHT22;7928;43.614;1.456;2023-04-01T07:30:57;12.40;99.90
15656;DHT22;7928;43.614;1.456;2023-04-01T07:33:33;12.40;99.90
15656;DHT22;7928;43.614;1.456;2023-04-01T07:36:06;12.50;99.90
15656;DHT22;7928;43.614;1.456;2023-04-01T07:38:47;12.20;99.90
15656;DHT22;7928;43.614;1.456;2023-04-01T07:41:23;12.70;99.90
15656;DHT22;7928;43.614;1.456;2023-04-01T07:44:00;12.60;99.90
15656;DHT22;7928;43.614;1.456;2023-04-01T07:46:56;12.90;99.90
15656;DHT22;7928;43.614;1.456;2023-04-01T07:49:30;13.40;99.90
15656;DHT22;7928;43.614;1.456;2023-04-01T07:52:06;13.10;99.90
15656;DHT22;7928;43.614;1.456;2023-04-01T07:54:43;13.90;99.90
15656;DHT22;7928;43.614;1.456;2023-04-01T07:57:18;13.10;99.90
15656;DHT22;7928;43.614;1.456;2023-04-01T07:59:55;13.90;99.90
15656;DHT22;7928;43.614;1.456;2023-04-01T08:02:41;13.30;99.90
15656;DHT22;7928;43.614;1.456;2023-04-01T08:05:18;13.70;99.90
15656;DHT22;7928;43.614;1.456;2023-04-01T08:07:51;12.50;99.90
15656;DHT22;7928;43.614;1.456;2023-04-01T08:10:23;13.40;99.90
15656;DHT22;7928;43.614;1.456;2023-04-01T08:12:59;13.40;99.90
15656;DHT22;7928;43.614;1.456;2023-04-01T08:15:35;12.60;99.90
15656;DHT22;7928;43.614;1.456;2023-04-01T08:18:17;13.40;99.90
15656;DHT22;7928;43.614;1.456;2023-04-01T08:20:50;13.20;99.90
15656;DHT22;7928;43.614;1.456;2023-04-01T08:23:22;13.60;99.90
15656;DHT22;7928;43.614;1.456;2023-04-01T08:25:55;14.00;99.90
15656;DHT22;7928;43.614;1.456;2023-04-01T08:28:27;14.20;99.90
15656;DHT22;7928;43.614;1.456;2023-04-01T08:30:59;13.40;99.90
15656;DHT22;7928;43.614;1.456;2023-04-01T08:33:28;13.60;99.90
15656;DHT22;7928;43.614;1.456;2023-04-01T08:35:59;13.80;99.90
15656;DHT22;7928;43.614;1.456;2023-04-01T08:38:31;13.90;99.90
15656;DHT22;7928;43.614;1.456;2023-04-01T08:41:17;14.30;99.90
15656;DHT22;7928;43.614;1.456;2023-04-01T08:47:13;14.90;99.90
15656;DHT22;7928;43.614;1.456;2023-04-01T08:52:50;14.60;99.90
15656;DHT22;7928;43.614;1.456;2023-04-01T08:55:31;14.60;99.90
15656;DHT22;7928;43.614;1.456;2023-04-01T08:58:25;14.40;99.90
15656;DHT22;7928;43.614;1.456;2023-04-01T09:00:54;14.80;99.90
15656;DHT22;7928;43.614;1.456;2023-04-01T09:03:51;15.00;99.90
15656;DHT22;7928;43.614;1.456;2023-04-01T09:06:33;14.90;99.90
15656;DHT22;7928;43.614;1.456;2023-04-01T09:09:19;14.90;99.90
15656;DHT22;7928;43.614;1.456;2023-04-01T09:12:06;14.90;99.90
15656;DHT22;7928;43.614;1.456;2023-04-01T09:14:54;14.90;99.90
15656;DHT22;7928;43.614;1.456;2023-04-01T09:20:36;15.10;99.90
15656;DHT22;7928;43.614;1.456;2023-04-01T09:26:22;15.30;99.90
15656;DHT22;7928;43.614;1.456;2023-04-01T09:29:02;15.00;99.90
15656;DHT22;7928;43.614;1.456;2023-04-01T09:32:01;15.30;99.90
15656;DHT22;7928;43.614;1.456;2023-04-01T09:34:53;15.40;99.90
15656;DHT22;7928;43.614;1.456;2023-04-01T09:37:31;15.90;99.90
15656;DHT22;7928;43.614;1.456;2023-04-01T09:40:16;15.90;99.90
15656;DHT22;7928;43.614;1.456;2023-04-01T09:42:48;16.00;99.90
15656;DHT22;7928;43.614;1.456;2023-04-01T09:45:43;15.80;99.90
15656;DHT22;7928;43.614;1.456;2023-04-01T09:48:25;15.70;99.90
15656;DHT22;7928;43.614;1.456;2023-04-01T09:51:04;15.40;99.90
15656;DHT22;7928;43.614;1.456;2023-04-01T09:53:44;15.80;99.90
15656;DHT22;7928;43.614;1.456;2023-04-01T09:56:42;16.00;99.90
15656;DHT22;7928;43.614;1.456;2023-04-01T10:02:59;15.40;99.90
15656;DHT22;7928;43.614;1.456;2023-04-01T10:06:11;15.70;99.90
15656;DHT22;7928;43.614;1.456;2023-04-01T10:12:27;15.70;99.90
15656;DHT22;7928;43.614;1.456;2023-04-01T10:15:23;16.20;99.90
15656;DHT22;7928;43.614;1.456;2023-04-01T10:18:14;17.10;99.90
15656;DHT22;7928;43.614;1.456;2023-04-01T10:24:01;17.40;99.90
15656;DHT22;7928;43.614;1.456;2023-04-01T10:27:02;17.50;99.90
15656;DHT22;7928;43.614;1.456;2023-04-01T10:45:35;19.60;99.90
15656;DHT22;7928;43.614;1.456;2023-04-01T10:54:43;19.10;99.90
15656;DHT22;7928;43.614;1.456;2023-04-01T10:57:34;18.40;99.90
15656;DHT22;7928;43.614;1.456;2023-04-01T11:00:30;17.60;99.90
15656;DHT22;7928;43.614;1.456;2023-04-01T11:06:30;16.60;99.90
15656;DHT22;7928;43.614;1.456;2023-04-01T11:09:22;16.30;99.90
15656;DHT22;7928;43.614;1.456;2023-04-01T11:12:18;16.60;99.90
15656;DHT22;7928;43.614;1.456;2023-04-01T11:23:54;14.20;99.90
15656;DHT22;7928;43.614;1.456;2023-04-01T11:26:33;14.50;99.90
15656;DHT22;7928;43.614;1.456;2023-04-01T11:29:31;14.50;99.90
15656;DHT22;7928;43.614;1.456;2023-04-01T11:32:20;14.70;99.90
15656;DHT22;7928;43.614;1.456;2023-04-01T11:35:06;14.60;99.90
15656;DHT22;7928;43.614;1.456;2023-04-01T11:37:45;14.60;99.90
15656;DHT22;7928;43.614;1.456;2023-04-01T11:40:20;14.60;99.90
15656;DHT22;7928;43.614;1.456;2023-04-01T11:42:58;14.10;99.90
15656;DHT22;7928;43.614;1.456;2023-04-01T11:45:35;13.90;99.90
15656;DHT22;7928;43.614;1.456;2023-04-01T11:48:20;14.10;99.90
15656;DHT22;7928;43.614;1.456;2023-04-01T11:51:05;14.40;99.90
15656;DHT22;7928;43.614;1.456;2023-04-01T11:53:44;13.70;99.90
15656;DHT22;7928;43.614;1.456;2023-04-01T11:56:22;14.30;99.90
15656;DHT22;7928;43.614;1.456;2023-04-01T11:59:23;14.20;99.90
15656;DHT22;7928;43.614;1.456;2023-04-01T12:02:03;14.80;99.90
15656;DHT22;7928;43.614;1.456;2023-04-01T12:04:51;14.70;99.90
15656;DHT22;7928;43.614;1.456;2023-04-01T12:07:40;14.70;99.90
15656;DHT22;7928;43.614;1.456;2023-04-01T12:10:18;15.40;99.90
15656;DHT22;7928;43.614;1.456;2023-04-01T12:12:51;14.90;99.90
15656;DHT22;7928;43.614;1.456;2023-04-01T12:15:29;14.90;99.90
15656;DHT22;7928;43.614;1.456;2023-04-01T12:18:05;15.30;99.90
15656;DHT22;7928;43.614;1.456;2023-04-01T12:20:43;15.30;99.90
15656;DHT22;7928;43.614;1.456;2023-04-01T12:23:25;15.00;99.90
15656;DHT22;7928;43.614;1.456;2023-04-01T12:26:05;15.80;99.90
15656;DHT22;7928;43.614;1.456;2023-04-01T12:28:44;15.20;99.90
15656;DHT22;7928;43.614;1.456;2023-04-01T12:31:22;15.00;99.90
15656;DHT22;7928;43.614;1.456;2023-04-01T12:36:57;14.50;99.90
15656;DHT22;7928;43.614;1.456;2023-04-01T12:39:44;13.70;99.90
15656;DHT22;7928;43.614;1.456;2023-04-01T12:42:20;13.80;99.90
15656;DHT22;7928;43.614;1.456;2023-04-01T12:45:00;13.70;99.90
15656;DHT22;7928;43.614;1.456;2023-04-01T12:47:50;14.40;99.90
15656;DHT22;7928;43.614;1.456;2023-04-01T12:50:28;14.00;99.90
15656;DHT22;7928;43.614;1.456;2023-04-01T12:53:14;13.90;99.90
15656;DHT22;7928;43.614;1.456;2023-04-01T12:55:48;13.60;99.90
15656;DHT22;7928;43.614;1.456;2023-04-01T12:58:39;14.20;99.90
15656;DHT22;7928;43.614;1.456;2023-04-01T13:01:26;13.70;99.90
15656;DHT22;7928;43.614;1.456;2023-04-01T13:07:01;13.00;99.90
15656;DHT22;7928;43.614;1.456;2023-04-01T13:09:40;12.40;99.90
15656;DHT22;7928;43.614;1.456;2023-04-01T13:12:33;12.30;99.90
15656;DHT22;7928;43.614;1.456;2023-04-01T13:15:24;11.70;99.90
15656;DHT22;7928;43.614;1.456;2023-04-01T13:17:58;11.90;99.90
15656;DHT22;7928;43.614;1.456;2023-04-01T13:20:40;11.70;99.90
15656;DHT22;7928;43.614;1.456;2023-04-01T13:23:19;11.90;99.90
15656;DHT22;7928;43.614;1.456;2023-04-01T13:25:54;12.00;99.90
15656;DHT22;7928;43.614;1.456;2023-04-01T13:28:26;11.90;99.90
15656;DHT22;7928;43.614;1.456;2023-04-01T13:30:59;12.10;99.90
15656;DHT22;7928;43.614;1.456;2023-04-01T13:33:38;13.00;99.90
15656;DHT22;7928;43.614;1.456;2023-04-01T13:36:19;12.30;99.90
15656;DHT22;7928;43.614;1.456;2023-04-01T13:39:01;12.40;99.90
15656;DHT22;7928;43.614;1.456;2023-04-01T13:41:43;12.40;99.90
15656;DHT22;7928;43.614;1.456;2023-04-01T13:44:22;12.30;99.90
15656;DHT22;7928;43.614;1.456;2023-04-01T13:50:17;12.40;99.90
15656;DHT22;7928;43.614;1.456;2023-04-01T13:53:11;12.20;99.90
15656;DHT22;7928;43.614;1.456;2023-04-01T13:55:54;12.30;99.90
15656;DHT22;7928;43.614;1.456;2023-04-01T13:58:54;11.90;99.90
15656;DHT22;7928;43.614;1.456;2023-04-01T14:01:30;11.90;99.90
15656;DHT22;7928;43.614;1.456;2023-04-01T14:04:29;11.80;99.90
15656;DHT22;7928;43.614;1.456;2023-04-01T14:07:08;9.50;99.90
15656;DHT22;7928;43.614;1.456;2023-04-01T14:09:59;11.50;99.90
15656;DHT22;7928;43.614;1.456;2023-04-01T14:12:31;12.20;99.90
15656;DHT22;7928;43.614;1.456;2023-04-01T14:15:34;12.30;99.90
15656;DHT22;7928;43.614;1.456;2023-04-01T14:18:24;11.80;99.90
15656;DHT22;7928;43.614;1.456;2023-04-01T14:21:00;11.80;99.90
15656;DHT22;7928;43.614;1.456;2023-04-01T14:23:47;11.70;99.90
15656;DHT22;7928;43.614;1.456;2023-04-01T14:26:43;11.70;99.90
15656;DHT22;7928;43.614;1.456;2023-04-01T14:29:22;12.00;99.90
15656;DHT22;7928;43.614;1.456;2023-04-01T14:32:02;14.30;99.90
15656;DHT22;7928;43.614;1.456;2023-04-01T14:34:52;11.90;99.90
15656;DHT22;7928;43.614;1.456;2023-04-01T14:40:26;11.20;99.90
15656;DHT22;7928;43.614;1.456;2023-04-01T14:46:08;11.80;99.90
15656;DHT22;7928;43.614;1.456;2023-04-01T14:48:49;11.90;99.90
15656;DHT22;7928;43.614;1.456;2023-04-01T14:51:22;12.10;99.90
15656;DHT22;7928;43.614;1.456;2023-04-01T14:54:03;11.50;99.90
15656;DHT22;7928;43.614;1.456;2023-04-01T14:56:41;11.10;99.90
15656;DHT22;7928;43.614;1.456;2023-04-01T14:59:25;10.60;99.90
15656;DHT22;7928;43.614;1.456;2023-04-01T15:01:57;10.00;99.90
15656;DHT22;7928;43.614;1.456;2023-04-01T15:04:41;9.90;99.90
15656;DHT22;7928;43.614;1.456;2023-04-01T15:07:32;9.90;99.90
15656;DHT22;7928;43.614;1.456;2023-04-01T15:10:06;9.70;99.90
15656;DHT22;7928;43.614;1.456;2023-04-01T15:12:42;9.80;99.90
15656;DHT22;7928;43.614;1.456;2023-04-01T15:15:24;10.00;99.90
15656;DHT22;7928;43.614;1.456;2023-04-01T15:18:07;9.50;99.90
15656;DHT22;7928;43.614;1.456;2023-04-01T15:20:56;9.00;99.90
15656;DHT22;7928;43.614;1.456;2023-04-01T15:23:40;9.90;99.90
15656;DHT22;7928;43.614;1.456;2023-04-01T15:26:26;9.80;99.90
15656;DHT22;7928;43.614;1.456;2023-04-01T15:29:22;9.70;99.90
15656;DHT22;7928;43.614;1.456;2023-04-01T15:31:55;9.90;99.90
15656;DHT22;7928;43.614;1.456;2023-04-01T15:34:31;10.10;99.90
15656;DHT22;7928;43.614;1.456;2023-04-01T15:37:04;10.20;99.90
15656;DHT22;7928;43.614;1.456;2023-04-01T15:39:48;10.20;99.90
15656;DHT22;7928;43.614;1.456;2023-04-01T15:42:32;10.00;99.90
15656;DHT22;7928;43.614;1.456;2023-04-01T15:45:10;10.40;99.90
15656;DHT22;7928;43.614;1.456;2023-04-01T15:47:42;10.60;99.90
15656;DHT22;7928;43.614;1.456;2023-04-01T15:50:44;10.50;99.90
15656;DHT22;7928;43.614;1.456;2023-04-01T15:53:27;11.70;99.90
15656;DHT22;7928;43.614;1.456;2023-04-01T15:56:12;11.50;99.90
15656;DHT22;7928;43.614;1.456;2023-04-01T15:58:49;13.40;99.90
15656;DHT22;7928;43.614;1.456;2023-04-01T16:01:28;13.10;99.90
15656;DHT22;7928;43.614;1.456;2023-04-01T16:04:14;13.50;99.90
15656;DHT22;7928;43.614;1.456;2023-04-01T16:06:58;13.50;99.90
15656;DHT22;7928;43.614;1.456;2023-04-01T16:09:43;13.50;99.90
15656;DHT22;7928;43.614;1.456;2023-04-01T16:12:18;13.50;99.90
15656;DHT22;7928;43.614;1.456;2023-04-01T16:14:55;13.90;99.90
15656;DHT22;7928;43.614;1.456;2023-04-01T16:17:35;14.00;99.90
15656;DHT22;7928;43.614;1.456;2023-04-01T16:20:17;14.00;99.90
15656;DHT22;7928;43.614;1.456;2023-04-01T16:22:50;13.60;99.90
15656;DHT22;7928;43.614;1.456;2023-04-01T16:25:31;14.20;99.90
15656;DHT22;7928;43.614;1.456;2023-04-01T16:28:12;13.10;99.90
15656;DHT22;7928;43.614;1.456;2023-04-01T16:30:45;13.50;99.90
15656;DHT22;7928;43.614;1.456;2023-04-01T16:33:20;13.00;99.90
15656;DHT22;7928;43.614;1.456;2023-04-01T16:35:53;12.30;99.90
15656;DHT22;7928;43.614;1.456;2023-04-01T16:38:25;12.00;99.90
15656;DHT22;7928;43.614;1.456;2023-04-01T16:41:11;12.10;99.90
15656;DHT22;7928;43.614;1.456;2023-04-01T16:43:42;11.70;99.90
15656;DHT22;7928;43.614;1.456;2023-04-01T16:46:28;11.60;99.90
15656;DHT22;7928;43.614;1.456;2023-04-01T16:49:13;12.10;99.90
15656;DHT22;7928;43.614;1.456;2023-04-01T16:51:47;11.50;99.90
15656;DHT22;7928;43.614;1.456;2023-04-01T16:54:19;11.40;99.90
15656;DHT22;7928;43.614;1.456;2023-04-01T16:57:01;11.10;99.90
15656;DHT22;7928;43.614;1.456;2023-04-01T16:59:35;11.00;99.90
15656;DHT22;7928;43.614;1.456;2023-04-01T17:02:08;11.10;99.90
15656;DHT22;7928;43.614;1.456;2023-04-01T17:04:42;10.90;99.90
15656;DHT22;7928;43.614;1.456;2023-04-01T17:07:24;11.10;99.90
15656;DHT22;7928;43.614;1.456;2023-04-01T17:10:04;11.10;99.90
15656;DHT22;7928;43.614;1.456;2023-04-01T17:12:40;11.20;99.90
15656;DHT22;7928;43.614;1.456;2023-04-01T17:15:19;10.80;99.90
15656;DHT22;7928;43.614;1.456;2023-04-01T17:17:53;11.00;99.90
15656;DHT22;7928;43.614;1.456;2023-04-01T17:20:31;11.00;99.90
15656;DHT22;7928;43.614;1.456;2023-04-01T17:23:14;11.40;99.90
15656;DHT22;7928;43.614;1.456;2023-04-01T17:26:03;10.50;99.90
15656;DHT22;7928;43.614;1.456;2023-04-01T17:28:44;10.60;99.90
15656;DHT22;7928;43.614;1.456;2023-04-01T17:31:22;11.40;99.90
15656;DHT22;7928;43.614;1.456;2023-04-01T17:34:06;11.00;99.90
15656;DHT22;7928;43.614;1.456;2023-04-01T17:36:48;10.80;99.90
15656;DHT22;7928;43.614;1.456;2023-04-01T17:39:43;10.50;99.90
15656;DHT22;7928;43.614;1.456;2023-04-01T17:42:16;10.30;99.90
15656;DHT22;7928;43.614;1.456;2023-04-01T17:44:52;11.20;99.90
15656;DHT22;7928;43.614;1.456;2023-04-01T17:47:39;10.90;99.90
15656;DHT22;7928;43.614;1.456;2023-04-01T17:50:21;10.90;99.90
15656;DHT22;7928;43.614;1.456;2023-04-01T17:52:55;9.80;99.90
15656;DHT22;7928;43.614;1.456;2023-04-01T17:55:40;10.40;99.90
15656;DHT22;7928;43.614;1.456;2023-04-01T17:58:17;11.10;99.90
15656;DHT22;7928;43.614;1.456;2023-04-01T18:01:02;9.80;99.90
15656;DHT22;7928;43.614;1.456;2023-04-01T18:06:21;10.60;99.90
15656;DHT22;7928;43.614;1.456;2023-04-01T18:08:58;9.70;99.90
15656;DHT22;7928;43.614;1.456;2023-04-01T18:11:34;9.80;99.90
15656;DHT22;7928;43.614;1.456;2023-04-01T18:14:26;9.80;99.90
15656;DHT22;7928;43.614;1.456;2023-04-01T18:20:07;9.70;99.90
15656;DHT22;7928;43.614;1.456;2023-04-01T18:22:42;9.20;99.90